Flight Track Log - Related Links

Times and Time Zones

All times are in EDT time to prevent confusion due to time zone crossing. See the ASQ6041 flight status page for this flight to view local times or setup timezone preferences in your user account.

Time Position Orientation Groundspeed Altitude Reporting Facility
EDT Latitude Longitude Course Direction KTS MPH feet Rate Location/Type
Sat 02:31:14 PM 40.9011 -96.8581 301° West 236 272 4,600  Level Minneapolis Center
Sat 02:31:18 PM 40.9142 -96.8619 347° North 206 237 4,600 1,636 Level Minneapolis Center
Sat 02:32:00 PM 40.8129 -97.1756 253° West  Level Estimated
Sat 02:32:20 PM 40.8986 -96.9608 258° West 270 311 6,400  Level Minneapolis Center
Sat 02:33:00 PM 40.7999 -97.3143 257° West  Level Estimated
Sat 02:33:21 PM 40.8783 -97.0600 255° West 280 322 9,400  Level Minneapolis Center
Sat 02:34:00 PM 40.7786 -97.4512 258° West  Level FlightAware Approximate
Sat 02:34:23 PM 40.8594 -97.1578 256° West 276 318 11,000  Level Minneapolis Center
Sat 02:35:00 PM 40.7654 -97.5898 246° West  Level Estimated
Sat 02:35:25 PM 40.8339 -97.3008 257° West 325 374 12,400  Level Minneapolis Center
Sat 02:36:27 PM 40.8086 -97.4186 254° West 341 392 14,200 1,548 Climbing Minneapolis Center
Sat 02:37:29 PM 40.7847 -97.5453 256° West 351 404 15,600 1,548 Climbing Minneapolis Center
Sat 02:38:31 PM 40.7578 -97.6747 255° West 361 415 17,400 1,610 Climbing Minneapolis Center
Sat 02:39:32 PM 40.7317 -97.8022 255° West 361 415 18,900 1,511 Climbing Minneapolis Center
Sat 02:40:46 PM 40.7000 -97.9606 255° West 368 423 20,800 1,752 Climbing Minneapolis Center
Sat 02:41:49 PM 40.6672 -98.1197 255° West 373 429 22,900 1,742 Climbing Minneapolis Center
Sat 02:42:50 PM 40.6414 -98.2497 255° West 369 425 24,400 1,463 Climbing Minneapolis Center
Sat 02:43:52 PM 40.6139 -98.3800 254° West 367 422 25,900 1,403 Climbing Minneapolis Center
Sat 02:44:54 PM 40.6122 -98.5139 269° West 373 429 27,300 1,403 Climbing Minneapolis Center
Sat 02:45:56 PM 40.6236 -98.6511 276° West 373 429 28,800 1,306 Climbing Minneapolis Center
Sat 02:46:58 PM 40.6358 -98.7878 277° West 374 430 30,000 581 Climbing Minneapolis Center
Sat 02:48:00 PM 40.6483 -98.9333 277° West 382 440 30,000  Level Minneapolis Center
Sat 02:49:02 PM 40.6631 -99.0939 277° West 419 482 30,000  Level Minneapolis Center
Sat 02:49:35 PM 40.6719 -99.1950 277° West 445 512 30,000  Level Denver Center
Sat 02:50:36 PM 40.6856 -99.3636 276° West 459 528 30,000  Level Denver Center
Sat 02:51:38 PM 40.6992 -99.5286 276° West 453 521 30,000  Level Denver Center
Sat 02:52:40 PM 40.7128 -99.6933 276° West 451 519 30,000  Level Denver Center
Sat 02:53:41 PM 40.7275 -99.8792 276° West 455 524 30,000  Level Denver Center
Sat 02:54:43 PM 40.7422 -100.0658 276° West 458 527 30,000  Level Denver Center
Sat 02:55:45 PM 40.7542 -100.2256 276° West 457 526 30,000  Level Denver Center
Sat 02:56:47 PM 40.7664 -100.3850 276° West 457 526 30,000  Level Denver Center
Sat 02:57:48 PM 40.7778 -100.5450 275° West 457 526 30,000  Level Denver Center
Sat 02:58:50 PM 40.7764 -100.7322 269° West 469 540 30,000  Level Denver Center
Sat 02:59:52 PM 40.7453 -100.9000 256° West 461 531 30,000  Level Denver Center
Sat 03:01:05 PM 40.7153 -101.0822 258° West 455 524 30,000  Level Denver Center
Sat 03:02:07 PM 40.6789 -101.2903 257° West 456 525 30,000  Level Denver Center
Sat 03:03:09 PM 40.6514 -101.4469 257° West 458 527 30,000  Level Denver Center
Sat 03:04:11 PM 40.6236 -101.6031 257° West 458 527 30,000  Level Denver Center
Sat 03:05:24 PM 40.5906 -101.7844 257° West 456 525 30,000  Level Denver Center
Sat 03:06:26 PM 40.5581 -101.9669 257° West 458 527 30,000  Level Denver Center
Sat 03:07:28 PM 40.5244 -102.1481 256° West 458 527 30,000  Level Denver Center
Sat 03:08:30 PM 40.4953 -102.3039 256° West 459 528 30,000  Level Denver Center
Sat 03:09:31 PM 40.4608 -102.4853 256° West 459 528 30,000  Level Denver Center
Sat 03:10:33 PM 40.4328 -102.6408 257° West 459 528 30,000  Level Denver Center
Sat 03:11:35 PM 40.4000 -102.8181 256° West 456 525 30,000  Level Denver Center
Sat 03:12:36 PM 40.3697 -102.9794 256° West 457 526 30,000  Level Denver Center
Sat 03:13:38 PM 40.3383 -103.1392 256° West 456 525 30,000 -97 Level Denver Center
Sat 03:14:40 PM 40.3097 -103.2936 256° West 442 509 29,800 -1,839 Descending Denver Center
Sat 03:15:42 PM 40.2794 -103.4422 255° West 426 490 26,200 -2,976 Descending Denver Center
Sat 03:16:43 PM 40.2508 -103.5944 256° West 430 495 23,700 -2,439 Descending Denver Center
Sat 03:17:45 PM 40.2203 -103.7464 255° West 382 440 21,200 -2,758 Descending Denver Center
Sat 03:18:47 PM 40.2050 -103.8847 262° West 359 413 18,000 -2,341 Descending Denver Center
Sat 03:19:48 PM 40.2153 -104.0058 276° West 337 388 16,400 -1,756 Descending Denver Center
Sat 03:20:50 PM 40.2267 -104.1233 277° West 329 379 14,400 -1,839 Descending Denver Center
Sat 03:21:52 PM 40.2375 -104.2458 277° West 318 366 12,600 -1,113 Descending Denver Center
Sat 03:22:54 PM 40.2258 -104.3536 262° West 301 346 12,100 -1,171 Descending Denver Center
Sat 03:23:55 PM 40.1969 -104.4619 251° West 294 338 10,200 -1,220 Descending Denver Center
Sat 03:24:57 PM 40.1744 -104.5514 252° West 262 302 9,600 -581 Descending Denver Center
Sat 03:25:59 PM 40.1525 -104.6264 249° West 227 261 9,000 -290 Descending Denver Center
Sat 03:27:01 PM 40.0961 -104.6708 211° Southwest 222 255 9,000 -341 Level Denver Center
Sat 03:28:02 PM 40.0586 -104.6853 196° South 194 223 8,300 -927 Descending Denver Center
Sat 03:29:04 PM 39.9933 -104.6858 180° South 188 216 7,100 -1,065 Descending Denver Center
Sat 03:30:06 PM 39.9383 -104.6864 180° South 185 213 6,100 -823 Descending Denver Center
Sat 03:31:08 PM 39.8961 -104.6869 181° South 158 182 5,400 -677 Descending Denver Center

Login

Don't have an account? Register now (free) for customized features, flight alerts, and more!